createdAt,value
2019-04-05T00:00:16.884Z,6.50
2019-04-05T00:02:45.407Z,6.50
2019-04-05T00:05:14.027Z,6.50
2019-04-05T00:07:42.483Z,6.50
2019-04-05T00:10:11.506Z,6.50
2019-04-05T00:12:40.032Z,6.50
2019-04-05T00:15:15.555Z,6.50
2019-04-05T00:17:39.605Z,6.40
2019-04-05T00:20:08.799Z,6.40
2019-04-05T00:22:37.332Z,6.40
2019-04-05T00:25:07.632Z,6.40
2019-04-05T00:27:36.159Z,6.40
2019-04-05T00:30:07.959Z,6.50
2019-04-05T00:32:36.480Z,6.40
2019-04-05T00:35:06.775Z,6.40
2019-04-05T00:37:35.231Z,6.40
2019-04-05T00:40:04.953Z,6.40
2019-04-05T00:42:33.509Z,6.40
2019-04-05T00:45:02.033Z,6.40
2019-04-05T00:47:30.585Z,6.40
2019-04-05T00:49:59.111Z,6.40
2019-04-05T00:52:27.666Z,6.40
2019-04-05T00:54:56.195Z,6.40
2019-04-05T00:57:24.748Z,6.40
2019-04-05T00:59:53.218Z,6.40
2019-04-05T01:02:22.248Z,6.40
2019-04-05T01:04:50.708Z,6.40
2019-04-05T01:07:19.595Z,6.40
2019-04-05T01:09:48.190Z,6.40
2019-04-05T01:12:17.922Z,6.40
2019-04-05T01:14:47.287Z,6.40
2019-04-05T01:17:24.743Z,6.40
2019-04-05T01:19:48.187Z,6.30
2019-04-05T01:22:17.536Z,6.30
2019-04-05T01:24:46.208Z,6.30
2019-04-05T01:27:15.435Z,6.20
2019-04-05T01:29:44.434Z,6.20
2019-04-05T01:32:13.023Z,6.20
2019-04-05T01:34:41.578Z,6.20
2019-04-05T01:37:10.180Z,6.20
2019-04-05T01:39:38.738Z,6.20
2019-04-05T01:42:07.603Z,6.20
2019-04-05T01:44:36.725Z,6.20
2019-04-05T01:47:05.319Z,6.30
2019-04-05T01:49:34.136Z,6.20
2019-04-05T01:52:02.907Z,6.20
2019-04-05T01:54:31.600Z,6.30
2019-04-05T01:57:00.051Z,6.30
2019-04-05T01:59:28.535Z,6.30
2019-04-05T02:01:57.159Z,6.30
2019-04-05T02:04:25.760Z,6.30
2019-04-05T02:06:54.552Z,6.30
2019-04-05T02:09:23.174Z,6.20
2019-04-05T02:11:51.776Z,6.30
2019-04-05T02:14:20.399Z,6.30
2019-04-05T02:16:48.995Z,6.20
2019-04-05T02:19:17.948Z,6.30
2019-04-05T02:21:46.843Z,6.30
2019-04-05T02:24:15.395Z,6.30
2019-04-05T02:26:43.920Z,6.30
2019-04-05T02:29:12.397Z,6.30
2019-04-05T02:31:40.855Z,6.30
2019-04-05T02:34:09.752Z,6.40
2019-04-05T02:36:38.343Z,6.40
2019-04-05T02:39:07.846Z,6.30
2019-04-05T02:41:38.350Z,6.30
2019-04-05T02:44:09.956Z,6.30
2019-04-05T02:46:40.343Z,6.30
2019-04-05T02:49:09.927Z,6.30
2019-04-05T02:51:39.828Z,6.30
2019-04-05T02:54:09.025Z,6.30
2019-04-05T02:56:38.300Z,6.30
2019-04-05T02:59:08.518Z,6.30
2019-04-05T03:01:37.119Z,6.30
2019-04-05T03:04:05.755Z,6.30
2019-04-05T03:06:34.420Z,6.30
2019-04-05T03:09:05.920Z,6.30
2019-04-05T03:11:35.670Z,6.30
2019-04-05T03:14:04.766Z,6.30
2019-04-05T03:16:41.588Z,6.30
2019-04-05T03:19:10.064Z,6.30
2019-04-05T03:21:41.744Z,6.20
2019-04-05T03:24:13.392Z,6.20
2019-04-05T03:26:44.997Z,6.20
2019-04-05T03:29:13.691Z,6.20
2019-04-05T03:31:42.585Z,6.20
2019-04-05T03:34:12.573Z,6.20
2019-04-05T03:36:41.572Z,6.20
2019-04-05T03:39:10.663Z,6.20
2019-04-05T03:41:39.531Z,6.20
2019-04-05T03:44:09.071Z,6.20
2019-04-05T03:46:37.832Z,6.10
2019-04-05T03:49:06.912Z,6.10
2019-04-05T03:51:35.810Z,6.10
2019-04-05T03:54:05.645Z,6.20
2019-04-05T03:56:38.011Z,6.10
2019-04-05T03:59:05.626Z,6.20
2019-04-05T04:01:34.320Z,6.20
2019-04-05T04:04:03.425Z,6.20
2019-04-05T04:06:32.217Z,6.20
2019-04-05T04:09:01.506Z,6.10
2019-04-05T04:11:30.498Z,6.20
2019-04-05T04:13:59.760Z,6.20
2019-04-05T04:16:29.465Z,6.10
2019-04-05T04:18:58.266Z,6.10
2019-04-05T04:21:47.766Z,6.10
2019-04-05T04:24:16.629Z,6.20
2019-04-05T04:26:45.331Z,6.10
2019-04-05T04:29:14.006Z,6.10
2019-04-05T04:31:42.996Z,6.20
2019-04-05T04:34:11.871Z,6.10
2019-04-05T04:36:40.568Z,6.10
2019-04-05T04:39:09.272Z,6.20
2019-04-05T04:41:38.293Z,6.20
2019-04-05T04:44:07.266Z,6.20
2019-04-05T04:46:35.961Z,6.20
2019-04-05T04:49:04.592Z,6.30
2019-04-05T04:51:33.755Z,6.30
2019-04-05T04:54:02.552Z,6.30
2019-04-05T04:56:31.447Z,6.30
2019-04-05T04:59:00.528Z,6.30
2019-04-05T05:01:29.263Z,6.30
2019-04-05T05:03:57.859Z,6.30
2019-04-05T05:06:26.463Z,6.30
2019-04-05T05:08:55.088Z,6.30
2019-04-05T05:11:24.474Z,6.40
2019-04-05T05:13:53.167Z,6.40
2019-04-05T05:16:21.796Z,6.40
2019-04-05T05:18:50.492Z,6.40
2019-04-05T05:21:19.424Z,6.40
2019-04-05T05:23:48.225Z,6.40
2019-04-05T05:26:17.161Z,6.40
2019-04-05T05:28:45.856Z,6.40
2019-04-05T05:31:14.488Z,6.40
2019-04-05T05:33:43.589Z,6.40
2019-04-05T05:36:12.623Z,6.40
2019-04-05T05:38:41.230Z,6.40
2019-04-05T05:41:09.912Z,6.40
2019-04-05T05:43:38.380Z,6.50
2019-04-05T05:46:06.934Z,6.40
2019-04-05T05:48:36.410Z,6.40
2019-04-05T05:51:05.044Z,6.40
2019-04-05T05:53:33.571Z,6.50
2019-04-05T05:56:02.058Z,6.50
2019-04-05T05:58:30.593Z,6.40
2019-04-05T06:00:59.086Z,6.50
2019-04-05T06:03:27.620Z,6.40
2019-04-05T06:06:04.136Z,6.40
2019-04-05T06:08:29.090Z,6.40
2019-04-05T06:10:56.641Z,6.40
2019-04-05T06:13:25.436Z,6.50
2019-04-05T06:15:53.899Z,6.50
2019-04-05T06:18:22.687Z,6.50
2019-04-05T06:20:51.576Z,6.50
2019-04-05T06:23:32.750Z,6.50
2019-04-05T06:25:50.322Z,6.50
2019-04-05T06:28:18.958Z,6.50
2019-04-05T06:30:48.024Z,6.50
2019-04-05T06:33:16.584Z,6.50
2019-04-05T06:35:45.119Z,6.50
2019-04-05T06:38:13.676Z,6.50
2019-04-05T06:40:42.705Z,6.50
2019-04-05T06:43:11.239Z,6.50
2019-04-05T06:45:39.863Z,6.50
2019-04-05T06:48:19.079Z,6.60
2019-04-05T06:50:38.528Z,6.60
2019-04-05T06:53:07.133Z,6.60
2019-04-05T06:55:36.140Z,6.60
2019-04-05T06:58:05.249Z,6.60
2019-04-05T07:00:34.137Z,6.60
2019-04-05T07:03:02.664Z,6.60
2019-04-05T07:05:31.224Z,6.60
2019-04-05T07:07:59.826Z,6.70
2019-04-05T07:10:28.383Z,6.70
2019-04-05T07:12:56.980Z,6.70
2019-04-05T07:15:25.788Z,6.70
2019-04-05T07:17:54.340Z,6.80
2019-04-05T07:20:23.899Z,6.80
2019-04-05T07:22:52.540Z,6.90
2019-04-05T07:25:21.410Z,7.00
2019-04-05T07:27:49.971Z,7.00
2019-04-05T07:30:19.088Z,7.10
2019-04-05T07:32:47.585Z,7.20
2019-04-05T07:35:16.184Z,7.30
2019-04-05T07:37:45.048Z,7.30
2019-04-05T07:40:13.843Z,7.40
2019-04-05T07:42:42.623Z,7.40
2019-04-05T07:45:11.300Z,7.50
2019-04-05T07:47:39.784Z,7.50
2019-04-05T07:50:09.419Z,7.50
2019-04-05T07:52:37.981Z,7.60
2019-04-05T07:55:08.891Z,7.60
2019-04-05T07:57:37.439Z,7.60
2019-04-05T08:00:07.944Z,7.70
2019-04-05T08:02:36.569Z,7.70
2019-04-05T08:05:07.218Z,7.60
2019-04-05T08:07:38.858Z,7.70
2019-04-05T08:10:10.616Z,7.60
2019-04-05T08:12:39.637Z,7.60
2019-04-05T08:15:08.379Z,7.60
2019-04-05T08:17:37.232Z,7.60
2019-04-05T08:20:07.163Z,7.60
2019-04-05T08:22:35.720Z,7.60
2019-04-05T08:25:05.031Z,7.60
2019-04-05T08:27:33.597Z,7.70
2019-04-05T08:30:02.123Z,7.70
2019-04-05T08:32:30.607Z,7.70
2019-04-05T08:34:59.368Z,7.70
2019-04-05T08:37:27.933Z,7.80
2019-04-05T08:39:56.460Z,7.80
2019-04-05T08:42:24.943Z,7.70
2019-04-05T08:44:53.475Z,7.70
2019-04-05T08:47:22.557Z,7.80
2019-04-05T08:49:51.267Z,7.80
2019-04-05T08:52:19.746Z,7.80
2019-04-05T08:54:48.278Z,7.80
2019-04-05T08:57:16.764Z,7.80
2019-04-05T08:59:45.217Z,7.80
2019-04-05T09:02:13.712Z,7.90
2019-04-05T09:04:42.238Z,7.90
2019-04-05T09:07:10.871Z,8.00
2019-04-05T09:09:39.747Z,7.90
2019-04-05T09:12:08.313Z,7.90
2019-04-05T09:14:36.845Z,8.00
2019-04-05T09:17:05.403Z,8.10
2019-04-05T09:19:33.860Z,8.20
2019-04-05T09:22:02.339Z,8.20
2019-04-05T09:24:30.876Z,8.30
2019-04-05T09:26:59.904Z,8.30
2019-04-05T09:29:28.440Z,8.40
2019-04-05T09:31:57.001Z,8.40
2019-04-05T09:34:25.543Z,8.40
2019-04-05T09:36:54.104Z,8.20
2019-04-05T09:39:22.637Z,8.20
2019-04-05T09:41:51.264Z,8.20
2019-04-05T09:44:19.792Z,8.30
2019-04-05T09:46:51.154Z,8.40
2019-04-05T09:49:18.530Z,8.50
2019-04-05T09:51:47.411Z,8.60
2019-04-05T09:54:15.974Z,8.60
2019-04-05T09:56:44.780Z,8.60
2019-04-05T09:59:13.273Z,8.80
2019-04-05T10:01:41.804Z,8.90
2019-04-05T10:04:10.482Z,8.90
2019-04-05T10:06:38.968Z,9.00
2019-04-05T10:09:08.667Z,9.00
2019-04-05T10:11:37.411Z,9.10
2019-04-05T10:14:06.112Z,9.20
2019-04-05T10:16:34.643Z,9.20
2019-04-05T10:19:03.124Z,9.30
2019-04-05T10:21:31.580Z,9.40
2019-04-05T10:24:00.143Z,9.50
2019-04-05T10:26:28.679Z,9.50
2019-04-05T10:28:57.601Z,9.50
2019-04-05T10:31:26.133Z,9.40
2019-04-05T10:33:54.972Z,9.50
2019-04-05T10:36:23.504Z,9.50
2019-04-05T10:38:51.990Z,9.50
2019-04-05T10:41:22.935Z,9.50
2019-04-05T10:43:50.691Z,9.50
2019-04-05T10:46:19.249Z,9.40
2019-04-05T10:48:47.780Z,9.40
2019-04-05T10:51:16.263Z,9.50
2019-04-05T10:53:44.792Z,9.40
2019-04-05T10:56:13.359Z,9.40
2019-04-05T10:58:41.889Z,9.40
2019-04-05T11:01:10.725Z,9.50
2019-04-05T11:03:39.255Z,9.50
2019-04-05T11:06:07.804Z,9.60
2019-04-05T11:08:36.581Z,9.60
2019-04-05T11:11:05.375Z,9.60
2019-04-05T11:13:34.158Z,9.60
2019-04-05T11:16:04.119Z,9.60
2019-04-05T11:18:33.602Z,9.60
2019-04-05T11:21:02.208Z,9.60
2019-04-05T11:23:30.735Z,9.60
2019-04-05T11:25:59.224Z,9.60
2019-04-05T11:28:28.013Z,9.60
2019-04-05T11:30:56.577Z,9.60
2019-04-05T11:33:25.384Z,9.70
2019-04-05T11:35:54.008Z,9.80
2019-04-05T11:38:24.449Z,9.80
2019-04-05T11:40:53.509Z,10.00
2019-04-05T11:43:26.145Z,10.10
2019-04-05T11:45:54.968Z,10.30
2019-04-05T11:48:23.581Z,10.50
2019-04-05T11:50:52.144Z,10.60
2019-04-05T11:53:22.168Z,10.80
2019-04-05T11:55:50.813Z,10.90
2019-04-05T11:58:19.347Z,11.20
2019-04-05T12:00:49.550Z,11.10
2019-04-05T12:03:19.732Z,11.10
2019-04-05T12:05:48.287Z,11.10
2019-04-05T12:08:16.752Z,11.20
2019-04-05T12:10:45.236Z,11.30
2019-04-05T12:13:13.696Z,11.40
2019-04-05T12:15:42.156Z,11.40
2019-04-05T12:18:10.783Z,11.30
2019-04-05T12:20:49.501Z,11.10
2019-04-05T12:23:09.463Z,10.90
2019-04-05T12:25:38.001Z,10.70
2019-04-05T12:28:10.314Z,10.70
2019-04-05T12:30:38.015Z,10.90
2019-04-05T12:33:13.595Z,10.90
2019-04-05T12:35:37.638Z,10.90
2019-04-05T12:38:07.060Z,11.20
2019-04-05T12:40:36.033Z,11.20
2019-04-05T12:43:04.629Z,11.10
2019-04-05T12:45:33.116Z,11.20
2019-04-05T12:48:01.656Z,11.10
2019-04-05T12:50:30.225Z,10.90
2019-04-05T12:52:58.760Z,10.80
2019-04-05T12:55:27.318Z,10.70
2019-04-05T12:57:56.775Z,10.70
2019-04-05T13:00:25.977Z,10.70
2019-04-05T13:02:56.974Z,10.70
2019-04-05T13:05:25.220Z,10.80
2019-04-05T13:07:53.783Z,10.80
2019-04-05T13:10:25.043Z,10.70
2019-04-05T13:12:56.751Z,10.80
2019-04-05T13:15:23.132Z,10.70
2019-04-05T13:17:51.800Z,10.60
2019-04-05T13:20:20.471Z,10.70
2019-04-05T13:22:48.961Z,10.80
2019-04-05T13:25:17.491Z,10.70
2019-04-05T13:27:46.316Z,10.70
2019-04-05T13:30:18.325Z,10.70
2019-04-05T13:32:45.356Z,10.70
2019-04-05T13:35:16.654Z,10.70
2019-04-05T13:37:44.071Z,10.60
2019-04-05T13:40:13.471Z,10.70
2019-04-05T13:42:42.071Z,10.70
2019-04-05T13:45:10.700Z,10.80
2019-04-05T13:47:39.234Z,10.90
2019-04-05T13:50:11.388Z,10.90
2019-04-05T13:52:41.468Z,10.90
2019-04-05T13:55:11.352Z,10.80
2019-04-05T13:57:40.898Z,10.90
2019-04-05T14:00:12.199Z,10.90
2019-04-05T14:02:40.783Z,11.00
2019-04-05T14:05:09.408Z,11.00
2019-04-05T14:07:37.952Z,10.90
2019-04-05T14:10:10.762Z,10.90
2019-04-05T14:12:40.104Z,10.80
2019-04-05T14:15:10.934Z,10.80
2019-04-05T14:17:38.841Z,10.70
2019-04-05T14:20:09.298Z,10.80
2019-04-05T14:22:38.192Z,10.80
2019-04-05T14:25:07.688Z,10.70
2019-04-05T14:27:36.170Z,10.60
2019-04-05T14:30:06.962Z,10.50
2019-04-05T14:32:35.503Z,10.50
2019-04-05T14:35:07.817Z,10.40
2019-04-05T14:37:36.395Z,10.40
2019-04-05T14:40:07.129Z,10.30
2019-04-05T14:42:35.668Z,10.30
2019-04-05T14:45:09.165Z,10.20
2019-04-05T14:47:37.688Z,10.20
2019-04-05T14:50:08.738Z,10.10
2019-04-05T14:52:37.267Z,10.20
2019-04-05T14:55:05.968Z,10.10
2019-04-05T14:57:35.706Z,10.20
2019-04-05T15:00:07.100Z,10.20
2019-04-05T15:02:35.953Z,10.20
2019-04-05T15:05:06.931Z,10.20
2019-04-05T15:07:37.598Z,10.30
2019-04-05T15:10:07.473Z,10.30
2019-04-05T15:12:35.939Z,10.30
2019-04-05T15:15:06.818Z,10.30
2019-04-05T15:17:47.430Z,10.30
2019-04-05T15:20:07.787Z,10.30
2019-04-05T15:22:36.720Z,10.20
2019-04-05T15:25:07.159Z,10.10
2019-04-05T15:27:35.642Z,10.20
2019-04-05T15:30:05.845Z,10.10
2019-04-05T15:32:35.884Z,10.10
2019-04-05T15:35:06.726Z,10.10
2019-04-05T15:37:37.449Z,10.10
2019-04-05T15:40:06.784Z,10.10
2019-04-05T15:42:35.268Z,10.10
2019-04-05T15:45:06.031Z,10.20
2019-04-05T15:47:34.567Z,10.20
2019-04-05T15:50:03.420Z,10.30
2019-04-05T15:52:32.202Z,10.30
2019-04-05T15:55:01.741Z,10.40
2019-04-05T15:57:33.467Z,10.40
2019-04-05T16:00:03.830Z,10.50
2019-04-05T16:02:33.252Z,10.40
2019-04-05T16:05:02.194Z,10.40
2019-04-05T16:07:31.029Z,10.40
2019-04-05T16:09:59.665Z,10.40
2019-04-05T16:12:28.276Z,10.40
2019-04-05T16:14:56.744Z,10.40
2019-04-05T16:17:25.305Z,10.40
2019-04-05T16:19:54.147Z,10.40
2019-04-05T16:22:31.242Z,10.30
2019-04-05T16:24:52.888Z,10.30
2019-04-05T16:27:21.449Z,10.20
2019-04-05T16:29:50.024Z,10.20
2019-04-05T16:32:18.488Z,10.20
2019-04-05T16:34:46.954Z,10.20
2019-04-05T16:37:15.529Z,10.20
2019-04-05T16:39:44.438Z,10.20
2019-04-05T16:42:13.296Z,10.20
2019-04-05T16:44:41.831Z,10.20
2019-04-05T16:47:10.399Z,10.30
2019-04-05T16:49:39.256Z,10.30
2019-04-05T16:52:08.093Z,10.30
2019-04-05T16:54:36.940Z,10.30
2019-04-05T16:57:05.568Z,10.30
2019-04-05T16:59:34.108Z,10.10
2019-04-05T17:02:02.599Z,10.10
2019-04-05T17:04:31.131Z,10.20
2019-04-05T17:06:59.628Z,10.20
2019-04-05T17:09:28.166Z,10.20
2019-04-05T17:11:56.728Z,10.20
2019-04-05T17:14:25.268Z,10.20
2019-04-05T17:16:53.756Z,10.20
2019-04-05T17:19:22.224Z,10.10
2019-04-05T17:21:50.785Z,10.10
2019-04-05T17:24:19.325Z,10.10
2019-04-05T17:26:47.880Z,10.00
2019-04-05T17:29:16.415Z,10.00
2019-04-05T17:31:44.904Z,10.00
2019-04-05T17:34:13.372Z,10.00
2019-04-05T17:36:41.936Z,10.00
2019-04-05T17:39:10.420Z,10.00
2019-04-05T17:41:38.992Z,10.00
2019-04-05T17:44:07.794Z,10.00
2019-04-05T17:46:36.362Z,10.00
2019-04-05T17:49:04.988Z,10.00
2019-04-05T17:51:33.616Z,10.10
2019-04-05T17:54:02.085Z,10.10
2019-04-05T17:56:30.788Z,10.00
2019-04-05T17:58:59.764Z,10.00
2019-04-05T18:01:28.613Z,10.00
2019-04-05T18:03:57.149Z,9.90
2019-04-05T18:06:25.712Z,9.90
2019-04-05T18:08:54.337Z,9.80
2019-04-05T18:11:22.830Z,9.70
2019-04-05T18:13:51.356Z,9.70
2019-04-05T18:16:19.916Z,9.70
2019-04-05T18:18:48.376Z,9.70
2019-04-05T18:21:16.836Z,9.70
2019-04-05T18:23:45.319Z,9.60
2019-04-05T18:26:13.780Z,9.60
2019-04-05T18:28:42.344Z,9.60
2019-04-05T18:31:10.808Z,9.70
2019-04-05T18:33:39.701Z,9.60
2019-04-05T18:36:08.235Z,9.70
2019-04-05T18:38:36.795Z,9.70
2019-04-05T18:41:05.399Z,9.70
2019-04-05T18:43:34.308Z,9.70
2019-04-05T18:46:02.770Z,9.70
2019-04-05T18:48:31.303Z,9.80
2019-04-05T18:50:59.792Z,9.80
2019-04-05T18:53:37.438Z,9.80
2019-04-05T18:55:58.524Z,9.80
2019-04-05T18:58:27.457Z,9.80
2019-04-05T19:00:56.034Z,9.80
2019-04-05T19:03:24.639Z,9.80
2019-04-05T19:05:53.560Z,9.80
2019-04-05T19:08:22.132Z,9.80
2019-04-05T19:10:50.669Z,9.80
2019-04-05T19:13:19.240Z,9.80
2019-04-05T19:15:47.904Z,9.90
2019-04-05T19:18:16.414Z,9.90
2019-04-05T19:20:45.220Z,9.90
2019-04-05T19:23:13.707Z,9.90
2019-04-05T19:25:42.241Z,9.90
2019-04-05T19:28:10.775Z,9.90
2019-04-05T19:50:41.307Z,9.80
2019-04-05T19:53:09.768Z,9.90
2019-04-05T19:55:38.396Z,9.80
2019-04-05T19:58:06.862Z,9.80
2019-04-05T20:00:35.778Z,9.80
2019-04-05T20:03:04.771Z,9.80
2019-04-05T20:05:33.252Z,9.80
2019-04-05T20:08:01.719Z,9.80
2019-04-05T20:10:30.343Z,9.70
2019-04-05T20:12:58.818Z,9.70
2019-04-05T20:15:27.379Z,9.70
2019-04-05T20:17:55.839Z,9.70
2019-04-05T20:20:24.327Z,9.80
2019-04-05T20:22:52.860Z,9.70
2019-04-05T20:25:21.420Z,9.70
2019-04-05T20:27:49.953Z,9.70
2019-04-05T20:30:18.752Z,9.70
2019-04-05T20:32:47.286Z,9.70
2019-04-05T20:35:15.920Z,9.70
2019-04-05T20:37:44.735Z,9.70
2019-04-05T20:40:13.431Z,9.70
2019-04-05T20:42:41.964Z,9.70
2019-04-05T20:45:10.659Z,9.60
2019-04-05T20:47:39.112Z,9.60
2019-04-05T20:50:08.344Z,9.60
2019-04-05T20:52:36.824Z,9.60
2019-04-05T20:55:08.648Z,9.60
2019-04-05T20:57:37.107Z,9.50
2019-04-05T21:00:08.477Z,9.40
2019-04-05T21:02:37.247Z,9.40
2019-04-05T21:05:06.961Z,9.40
2019-04-05T21:07:35.485Z,9.40
2019-04-05T21:10:08.943Z,9.30
2019-04-05T21:12:37.477Z,9.30
2019-04-05T21:15:07.471Z,9.30
2019-04-05T21:17:35.932Z,9.30
2019-04-05T21:20:06.329Z,9.30
2019-04-05T21:22:34.932Z,9.30
2019-04-05T21:25:04.283Z,9.30
2019-04-05T21:27:32.739Z,9.30
2019-04-05T21:30:01.223Z,9.30
2019-04-05T21:32:29.752Z,9.40
2019-04-05T21:34:58.279Z,9.30
2019-04-05T21:37:27.132Z,9.20
2019-04-05T21:39:55.616Z,9.30
2019-04-05T21:42:24.427Z,9.30
2019-04-05T21:44:52.917Z,9.30
2019-04-05T21:47:21.380Z,9.20
2019-04-05T21:49:50.152Z,9.20
2019-04-05T21:52:18.611Z,9.20
2019-04-05T21:54:47.924Z,9.20
2019-04-05T21:57:16.529Z,9.20
2019-04-05T21:59:45.012Z,9.20
2019-04-05T22:02:13.610Z,9.20
2019-04-05T22:04:42.096Z,9.20
2019-04-05T22:07:10.987Z,9.20
2019-04-05T22:09:39.468Z,9.30
2019-04-05T22:12:08.437Z,9.20
2019-04-05T22:14:36.991Z,9.30
2019-04-05T22:17:05.594Z,9.20
2019-04-05T22:19:34.243Z,9.20
2019-04-05T22:22:03.072Z,9.20
2019-04-05T22:24:31.532Z,9.20
2019-04-05T22:27:00.292Z,9.20
2019-04-05T22:29:28.827Z,9.20
2019-04-05T22:31:57.379Z,9.20
2019-04-05T22:34:25.835Z,9.20
2019-04-05T22:36:54.681Z,9.20
2019-04-05T22:39:23.143Z,9.10
2019-04-05T22:41:51.952Z,9.10
2019-04-05T22:44:20.408Z,9.10
2019-04-05T22:46:48.933Z,9.10
2019-04-05T22:49:17.396Z,9.10
2019-04-05T22:51:45.896Z,9.10
2019-04-05T22:54:14.363Z,9.00
2019-04-05T22:56:43.148Z,9.00
2019-04-05T22:59:12.737Z,9.00
2019-04-05T23:01:41.540Z,9.00
2019-04-05T23:04:10.100Z,8.90
2019-04-05T23:06:38.631Z,8.90
2019-04-05T23:09:07.327Z,8.90
2019-04-05T23:11:35.883Z,8.90
2019-04-05T23:14:04.515Z,8.90
2019-04-05T23:16:33.348Z,8.90
2019-04-05T23:19:01.875Z,8.90
2019-04-05T23:21:30.367Z,8.90
2019-04-05T23:23:58.828Z,8.90
2019-04-05T23:26:28.933Z,8.80
2019-04-05T23:28:57.552Z,8.80
2019-04-05T23:31:26.035Z,8.80
2019-04-05T23:33:54.595Z,8.80
2019-04-05T23:36:23.075Z,8.80
2019-04-05T23:38:51.532Z,8.80
2019-04-05T23:41:20.016Z,8.80
2019-04-05T23:43:48.478Z,8.80
2019-04-05T23:46:16.959Z,8.80
2019-04-05T23:48:45.422Z,8.80
2019-04-05T23:51:13.913Z,8.80
2019-04-05T23:53:42.516Z,8.80
2019-04-05T23:56:11.076Z,8.80
2019-04-05T23:58:39.539Z,8.60
